createdAt,value
2018-04-19T00:00:14.362Z,6.23
2018-04-19T00:02:41.832Z,5.57
2018-04-19T00:05:09.310Z,6.30
2018-04-19T00:07:36.766Z,6.37
2018-04-19T00:10:22.995Z,6.10
2018-04-19T00:12:50.450Z,6.33
2018-04-19T00:15:17.931Z,6.03
2018-04-19T00:17:45.402Z,6.40
2018-04-19T00:20:12.878Z,6.43
2018-04-19T00:22:40.370Z,6.63
2018-04-19T00:25:07.847Z,6.73
2018-04-19T00:27:35.314Z,6.43
2018-04-19T00:30:02.825Z,6.50
2018-04-19T00:32:30.283Z,6.90
2018-04-19T00:34:57.763Z,6.50
2018-04-19T00:37:25.236Z,6.60
2018-04-19T00:39:52.719Z,7.07
2018-04-19T00:42:20.226Z,7.30
2018-04-19T00:44:47.721Z,6.40
2018-04-19T00:47:15.188Z,6.23
2018-04-19T00:49:42.682Z,6.57
2018-04-19T00:52:10.146Z,6.53
2018-04-19T00:54:37.630Z,6.83
2018-04-19T00:57:05.086Z,7.17
2018-04-19T00:59:32.569Z,6.53
2018-04-19T01:02:00.033Z,6.87
2018-04-19T01:04:27.521Z,7.07
2018-04-19T01:06:54.986Z,6.50
2018-04-19T01:09:22.474Z,6.77
2018-04-19T01:11:49.954Z,7.40
2018-04-19T01:14:17.439Z,6.77
2018-04-19T01:16:44.907Z,6.77
2018-04-19T01:19:12.395Z,7.00
2018-04-19T01:21:39.857Z,6.93
2018-04-19T01:24:07.337Z,6.43
2018-04-19T01:26:34.803Z,7.03
2018-04-19T01:29:02.317Z,6.90
2018-04-19T01:31:29.779Z,7.23
2018-04-19T01:33:57.279Z,7.63
2018-04-19T01:36:25.541Z,8.50
2018-04-19T01:38:53.014Z,8.53
2018-04-19T01:41:20.501Z,8.30
2018-04-19T01:43:47.965Z,8.33
2018-04-19T01:46:15.447Z,8.03
2018-04-19T01:48:42.910Z,8.00
2018-04-19T01:51:10.390Z,7.87
2018-04-19T01:53:45.561Z,7.80
2018-04-19T01:56:13.033Z,8.23
2018-04-19T01:58:40.494Z,7.33
2018-04-19T02:01:07.987Z,8.30
2018-04-19T02:03:35.459Z,8.60
2018-04-19T02:06:02.975Z,8.40
2018-04-19T02:08:30.441Z,8.70
2018-04-19T02:10:57.931Z,7.83
2018-04-19T02:13:25.394Z,8.07
2018-04-19T02:15:52.882Z,7.50
2018-04-19T02:18:20.342Z,8.27
2018-04-19T02:20:47.829Z,8.40
2018-04-19T02:23:15.302Z,9.43
2018-04-19T02:25:42.782Z,8.40
2018-04-19T02:28:10.914Z,9.13
2018-04-19T02:30:38.414Z,8.63
2018-04-19T02:33:05.887Z,8.33
2018-04-19T02:35:33.366Z,8.17
2018-04-19T02:38:00.845Z,8.70
2018-04-19T02:40:28.330Z,8.97
2018-04-19T02:42:55.798Z,8.03
2018-04-19T02:45:23.288Z,8.13
2018-04-19T02:47:50.749Z,7.90
2018-04-19T02:50:18.249Z,8.40
2018-04-19T02:52:45.710Z,9.00
2018-04-19T02:55:13.195Z,9.83
2018-04-19T02:57:40.667Z,10.30
2018-04-19T03:00:08.153Z,9.97
2018-04-19T03:02:35.634Z,12.13
2018-04-19T03:05:03.145Z,11.20
2018-04-19T03:07:30.618Z,11.57
2018-04-19T03:09:58.104Z,11.97
2018-04-19T03:12:25.593Z,10.33
2018-04-19T03:14:53.080Z,10.10
2018-04-19T03:17:20.541Z,9.83
2018-04-19T03:19:48.035Z,10.30
2018-04-19T03:22:15.493Z,9.33
2018-04-19T03:24:42.997Z,8.13
2018-04-19T03:27:10.469Z,8.73
2018-04-19T03:29:37.954Z,8.70
2018-04-19T03:32:05.438Z,9.00
2018-04-19T03:34:32.902Z,9.37
2018-04-19T03:37:00.497Z,8.67
2018-04-19T03:39:27.957Z,8.30
2018-04-19T03:41:55.449Z,7.63
2018-04-19T03:44:22.969Z,8.27
2018-04-19T03:46:50.458Z,7.60
2018-04-19T03:49:17.925Z,7.73
2018-04-19T03:51:45.426Z,7.60
2018-04-19T03:54:12.893Z,7.10
2018-04-19T03:56:40.385Z,7.90
2018-04-19T03:59:07.857Z,7.77
2018-04-19T04:01:35.358Z,8.10
2018-04-19T04:04:02.826Z,7.87
2018-04-19T04:06:30.318Z,6.93
2018-04-19T04:08:57.823Z,7.53
2018-04-19T04:11:25.310Z,7.97
2018-04-19T04:13:52.784Z,7.97
2018-04-19T04:16:32.181Z,9.30
2018-04-19T04:19:11.226Z,8.47
2018-04-19T04:21:50.395Z,9.73
2018-04-19T04:24:17.853Z,8.53
2018-04-19T04:26:45.344Z,9.33
2018-04-19T04:29:12.810Z,8.60
2018-04-19T04:31:40.294Z,8.70
2018-04-19T04:34:07.782Z,8.67
2018-04-19T04:36:36.114Z,9.77
2018-04-19T04:39:03.570Z,7.73
2018-04-19T04:41:31.053Z,9.53
2018-04-19T04:43:58.515Z,9.10
2018-04-19T04:46:26.033Z,9.47
2018-04-19T04:48:53.494Z,9.03
2018-04-19T04:51:20.974Z,9.37
2018-04-19T04:53:48.436Z,8.77
2018-04-19T04:56:15.921Z,9.17
2018-04-19T04:58:43.958Z,9.77
2018-04-19T05:01:11.440Z,9.23
2018-04-19T05:03:39.766Z,9.30
2018-04-19T05:06:09.075Z,9.47
2018-04-19T05:13:44.257Z,9.50
2018-04-19T05:34:25.170Z,8.20
2018-04-19T05:42:16.166Z,7.70
2018-04-19T05:44:52.778Z,7.40
2018-04-19T05:55:04.056Z,7.63
2018-04-19T05:57:33.807Z,7.67
2018-04-19T06:00:02.225Z,6.87
2018-04-19T06:02:33.083Z,7.67
2018-04-19T06:05:01.008Z,8.17
2018-04-19T06:07:28.589Z,8.20
2018-04-19T06:10:01.019Z,8.87
2018-04-19T06:12:30.334Z,9.13
2018-04-19T06:14:57.894Z,8.60
2018-04-19T06:17:25.378Z,8.93
2018-04-19T06:19:52.847Z,10.10
2018-04-19T06:22:20.334Z,9.47
2018-04-19T06:24:47.808Z,9.67
2018-04-19T06:27:15.301Z,9.83
2018-04-19T06:29:42.802Z,9.57
2018-04-19T06:32:10.274Z,8.60
2018-04-19T06:34:37.738Z,9.63
2018-04-19T06:37:05.218Z,9.53
2018-04-19T06:39:32.687Z,9.97
2018-04-19T06:42:00.169Z,9.37
2018-04-19T06:44:27.633Z,9.80
2018-04-19T06:46:55.113Z,9.50
2018-04-19T06:49:22.585Z,8.60
2018-04-19T06:51:50.074Z,7.57
2018-04-19T06:54:17.533Z,7.10
2018-04-19T06:56:45.112Z,6.27
2018-04-19T06:59:12.584Z,6.83
2018-04-19T07:01:40.065Z,6.00
2018-04-19T07:04:07.525Z,5.93
2018-04-19T07:06:35.936Z,5.60
2018-04-19T07:09:03.407Z,5.63
2018-04-19T07:11:30.889Z,4.90
2018-04-19T07:13:58.359Z,4.67
2018-04-19T07:16:27.723Z,4.77
2018-04-19T07:18:55.197Z,4.87
2018-04-19T07:21:22.665Z,4.67
2018-04-19T07:23:50.143Z,4.60
2018-04-19T07:26:17.603Z,3.93
2018-04-19T07:28:45.082Z,4.50
2018-04-19T07:31:12.640Z,4.57
2018-04-19T07:33:40.214Z,4.67
2018-04-19T07:36:07.695Z,4.43
2018-04-19T07:38:35.216Z,3.80
2018-04-19T07:41:02.782Z,4.47
2018-04-19T07:43:30.298Z,4.23
2018-04-19T07:45:57.770Z,4.17
2018-04-19T07:48:25.275Z,4.40
2018-04-19T07:50:52.771Z,4.20
2018-04-19T07:53:20.289Z,4.30
2018-04-19T07:55:47.803Z,3.77
2018-04-19T07:58:15.335Z,3.87
2018-04-19T08:00:42.822Z,3.80
2018-04-19T08:03:10.389Z,3.97
2018-04-19T08:05:37.901Z,4.17
2018-04-19T08:08:05.401Z,4.70
2018-04-19T08:10:32.887Z,4.20
2018-04-19T08:13:01.012Z,4.50
2018-04-19T08:15:28.508Z,4.67
2018-04-19T08:17:56.044Z,4.67
2018-04-19T08:20:23.626Z,4.63
2018-04-19T08:22:51.113Z,4.67
2018-04-19T08:25:18.601Z,4.70
2018-04-19T08:27:46.106Z,4.43
2018-04-19T08:30:13.598Z,4.63
2018-04-19T08:32:41.180Z,4.57
2018-04-19T08:35:08.739Z,4.60
2018-04-19T08:37:36.225Z,4.50
2018-04-19T08:40:03.711Z,4.67
2018-04-19T08:42:31.234Z,4.50
2018-04-19T08:44:58.791Z,4.73
2018-04-19T08:47:26.382Z,4.40
2018-04-19T08:49:53.888Z,4.60
2018-04-19T08:52:21.414Z,4.67
2018-04-19T08:54:48.903Z,4.40
2018-04-19T08:57:16.440Z,4.90
2018-04-19T08:59:43.946Z,4.30
2018-04-19T09:02:11.508Z,4.27
2018-04-19T09:04:39.007Z,5.17
2018-04-19T09:07:06.606Z,4.90
2018-04-19T09:09:34.124Z,4.90
2018-04-19T09:12:01.630Z,5.30
2018-04-19T09:14:29.180Z,5.07
2018-04-19T09:17:01.938Z,5.33
2018-04-19T09:19:29.506Z,5.30
2018-04-19T09:21:57.058Z,5.50
2018-04-19T09:24:24.568Z,5.60
2018-04-19T09:26:52.120Z,5.60
2018-04-19T09:29:19.590Z,5.23
2018-04-19T09:31:47.076Z,5.30
2018-04-19T09:34:14.623Z,5.30
2018-04-19T09:36:42.181Z,5.23
2018-04-19T09:39:09.668Z,4.93
2018-04-19T09:41:37.129Z,5.03
2018-04-19T09:44:04.618Z,5.10
2018-04-19T09:46:32.083Z,4.80
2018-04-19T09:48:59.584Z,4.90
2018-04-19T09:51:27.066Z,5.63
2018-04-19T09:53:54.592Z,5.00
2018-04-19T09:56:22.070Z,4.80
2018-04-19T09:59:01.233Z,4.60
2018-04-19T10:01:28.723Z,5.50
2018-04-19T10:03:56.245Z,4.60
2018-04-19T10:06:23.711Z,4.60
2018-04-19T10:08:51.186Z,4.50
2018-04-19T10:11:18.659Z,4.43
2018-04-19T10:13:46.159Z,5.20
2018-04-19T10:16:13.618Z,5.27
2018-04-19T10:18:41.101Z,4.70
2018-04-19T10:21:08.562Z,4.90
2018-04-19T10:23:36.043Z,5.17
2018-04-19T10:26:03.517Z,4.67
2018-04-19T10:28:31.020Z,4.70
2018-04-19T10:30:58.483Z,4.60
2018-04-19T10:33:25.980Z,4.80
2018-04-19T10:35:53.442Z,4.73
2018-04-19T10:38:20.933Z,4.70
2018-04-19T10:40:48.399Z,5.07
2018-04-19T10:43:15.899Z,5.07
2018-04-19T10:45:43.363Z,4.57
2018-04-19T10:48:10.895Z,4.50
2018-04-19T10:50:38.370Z,4.67
2018-04-19T10:53:05.854Z,4.90
2018-04-19T10:55:33.332Z,4.97
2018-04-19T10:58:00.822Z,4.40
2018-04-19T11:00:28.290Z,4.77
2018-04-19T11:02:55.770Z,5.10
2018-04-19T11:05:23.268Z,5.27
2018-04-19T11:07:50.761Z,4.43
2018-04-19T11:10:18.289Z,4.30
2018-04-19T11:12:45.728Z,4.60
2018-04-19T11:18:23.187Z,4.20
2018-04-19T11:20:50.664Z,4.43
2018-04-19T11:23:18.166Z,4.60
2018-04-19T11:25:45.633Z,4.70
2018-04-19T11:28:13.126Z,4.87
2018-04-19T11:30:46.514Z,4.63
2018-04-19T11:33:14.843Z,5.00
2018-04-19T11:35:42.698Z,4.53
2018-04-19T11:38:12.903Z,4.43
2018-04-19T11:40:40.751Z,3.90
2018-04-19T11:43:08.310Z,4.13
2018-04-19T11:45:35.864Z,4.03
2018-04-19T11:48:12.375Z,4.10
2018-04-19T11:50:42.444Z,4.60
2018-04-19T11:53:12.848Z,4.20
2018-04-19T11:55:40.354Z,4.70
2018-04-19T11:58:08.617Z,4.20
2018-04-19T12:00:39.582Z,4.40
2018-04-19T12:03:07.605Z,3.70
2018-04-19T12:05:36.055Z,4.27
2018-04-19T12:08:06.997Z,4.73
2018-04-19T12:10:34.567Z,3.67
2018-04-19T12:13:02.108Z,3.90
2018-04-19T12:15:29.680Z,4.27
2018-04-19T12:17:57.514Z,4.03
2018-04-19T12:20:25.101Z,4.40
2018-04-19T12:22:52.570Z,4.07
2018-04-19T12:25:20.054Z,3.97
2018-04-19T12:27:47.519Z,4.00
2018-04-19T12:30:15.020Z,3.90
2018-04-19T12:32:42.486Z,3.93
2018-04-19T12:35:09.973Z,3.60
2018-04-19T12:37:37.496Z,4.10
2018-04-19T12:40:04.943Z,3.90
2018-04-19T12:42:32.410Z,3.50
2018-04-19T12:44:59.905Z,4.00
2018-04-19T12:47:27.370Z,3.20
2018-04-19T12:49:54.856Z,3.50
2018-04-19T12:52:22.343Z,3.47
2018-04-19T12:54:49.829Z,3.40
2018-04-19T12:57:17.290Z,3.30
2018-04-19T12:59:47.787Z,3.50
2018-04-19T13:02:15.242Z,3.47
2018-04-19T13:04:42.744Z,2.97
2018-04-19T13:07:10.222Z,3.20
2018-04-19T13:09:37.705Z,3.13
2018-04-19T13:12:05.170Z,3.27
2018-04-19T13:14:32.655Z,3.50
2018-04-19T13:17:00.217Z,3.60
2018-04-19T13:19:27.704Z,3.15
2018-04-19T13:21:55.181Z,3.05
2018-04-19T13:24:22.673Z,3.15
2018-04-19T13:26:50.234Z,3.62
2018-04-19T13:29:17.720Z,3.20
2018-04-19T13:31:45.195Z,3.08
2018-04-19T13:34:12.681Z,3.10
2018-04-19T13:36:40.141Z,2.97
2018-04-19T13:39:07.622Z,3.17
2018-04-19T13:41:35.096Z,3.60
2018-04-19T13:44:02.571Z,3.40
2018-04-19T13:46:30.053Z,3.40
2018-04-19T13:48:57.549Z,3.08
2018-04-19T13:51:25.047Z,3.33
2018-04-19T13:53:52.510Z,3.60
2018-04-19T13:56:20.002Z,3.30
2018-04-19T13:58:54.720Z,3.08
2018-04-19T14:01:25.164Z,3.37
2018-04-19T14:04:02.915Z,3.80
2018-04-19T14:06:34.489Z,3.60
2018-04-19T14:09:02.359Z,3.78
2018-04-19T15:33:27.967Z,3.42
2018-04-19T15:35:55.456Z,3.40
2018-04-19T15:38:22.958Z,3.50
2018-04-19T15:40:50.443Z,3.20
2018-04-19T15:43:17.913Z,3.75
2018-04-19T15:45:45.409Z,3.47
2018-04-19T15:48:12.869Z,3.40
2018-04-19T15:50:40.362Z,3.65
2018-04-19T15:53:07.818Z,3.37
2018-04-19T15:55:35.296Z,3.37
2018-04-19T15:58:02.766Z,3.42
2018-04-19T16:00:30.254Z,3.60
2018-04-19T16:02:57.718Z,3.40
2018-04-19T16:05:25.205Z,3.37
2018-04-19T16:07:52.681Z,3.40
2018-04-19T16:10:20.174Z,3.45
2018-04-19T16:12:48.368Z,3.42
2018-04-19T16:15:15.869Z,3.33
2018-04-19T16:17:43.334Z,3.47
2018-04-19T16:20:11.721Z,3.30
2018-04-19T16:22:39.202Z,3.70
2018-04-19T16:25:06.749Z,3.40
2018-04-19T16:27:34.233Z,3.55
2018-04-19T16:30:01.709Z,3.47
2018-04-19T16:32:29.201Z,3.28
2018-04-19T16:34:56.673Z,3.15
2018-04-19T16:37:24.924Z,3.85
2018-04-19T16:39:52.510Z,3.20
2018-04-19T16:42:24.068Z,3.75
2018-04-19T16:44:51.648Z,3.25
2018-04-19T16:47:19.188Z,3.33
2018-04-19T16:49:50.012Z,3.30
2018-04-19T16:52:19.116Z,3.20
2018-04-19T16:54:46.749Z,3.20
2018-04-19T16:57:18.460Z,3.10
2018-04-19T16:59:45.972Z,3.00
2018-04-19T17:02:14.822Z,3.30
2018-04-19T17:04:43.481Z,3.10
2018-04-19T17:07:11.929Z,3.78
2018-04-19T17:09:39.871Z,3.10
2018-04-19T17:12:15.742Z,3.43
2018-04-19T17:14:44.968Z,3.37
2018-04-19T17:17:19.966Z,3.67
2018-04-19T17:19:49.171Z,3.33
2018-04-19T17:22:16.886Z,3.60
2018-04-19T17:24:44.462Z,3.60
2018-04-19T17:27:12.595Z,3.10
2018-04-19T17:29:40.214Z,3.60
2018-04-19T17:32:11.927Z,3.20
2018-04-19T17:34:39.531Z,3.73
2018-04-19T17:56:58.472Z,3.60
2018-04-19T17:59:26.036Z,3.40
2018-04-19T18:02:02.587Z,3.53
2018-04-19T18:04:47.354Z,3.27
2018-04-19T18:07:15.660Z,3.30
2018-04-19T18:09:43.141Z,3.50
2018-04-19T18:12:10.649Z,3.57
2018-04-19T18:14:38.206Z,3.50
2018-04-19T18:17:06.097Z,3.13
2018-04-19T18:19:33.725Z,3.17
2018-04-19T18:22:01.298Z,3.53
2018-04-19T18:24:28.843Z,3.33
2018-04-19T18:26:56.475Z,3.47
2018-04-19T18:29:23.997Z,3.60
2018-04-19T18:31:51.606Z,3.40
2018-04-19T18:34:19.314Z,3.77
2018-04-19T18:36:46.841Z,3.33
2018-04-19T18:39:14.490Z,3.40
2018-04-19T18:41:42.137Z,3.93
2018-04-19T18:44:09.742Z,4.00
2018-04-19T18:46:37.229Z,3.70
2018-04-19T18:49:04.822Z,3.60
2018-04-19T18:51:32.354Z,3.90
2018-04-19T18:53:59.876Z,3.80
2018-04-19T18:56:27.454Z,3.50
2018-04-19T18:58:54.953Z,3.43
2018-04-19T19:01:22.790Z,3.60
2018-04-19T19:03:50.325Z,3.90
2018-04-19T19:06:18.145Z,3.87
2018-04-19T19:08:45.727Z,4.50
2018-04-19T19:11:13.255Z,4.33
2018-04-19T19:13:40.767Z,4.30
2018-04-19T19:16:09.194Z,4.43
2018-04-19T19:18:48.387Z,4.20
2018-04-19T19:21:15.894Z,3.97
2018-04-19T19:23:43.371Z,4.47
2018-04-19T19:26:10.908Z,3.70
2018-04-19T19:28:38.564Z,3.60
2018-04-19T19:31:06.070Z,3.70
2018-04-19T19:33:33.634Z,3.70
2018-04-19T19:36:01.955Z,4.00
2018-04-19T19:38:29.565Z,4.07
2018-04-19T19:40:57.097Z,4.23
2018-04-19T19:43:24.663Z,4.60
2018-04-19T19:45:52.274Z,4.87
2018-04-19T19:48:19.955Z,4.93
2018-04-19T20:16:39.422Z,5.37
2018-04-19T20:19:06.918Z,4.97
2018-04-19T20:21:34.389Z,5.10
2018-04-19T20:24:01.956Z,4.70
2018-04-19T20:26:29.443Z,5.23
2018-04-19T20:28:56.935Z,5.47
2018-04-19T20:31:24.399Z,5.13
2018-04-19T20:33:51.884Z,5.27
2018-04-19T20:36:19.357Z,5.50
2018-04-19T20:38:46.847Z,4.67
2018-04-19T20:41:14.310Z,4.97
2018-04-19T20:43:41.791Z,4.50
2018-04-19T20:46:09.257Z,4.70
2018-04-19T20:48:36.761Z,4.93
2018-04-19T20:51:04.241Z,4.53
2018-04-19T20:53:31.737Z,4.90
2018-04-19T20:55:59.197Z,5.17
2018-04-19T20:58:26.674Z,5.03
2018-04-19T21:00:54.137Z,5.50
2018-04-19T21:03:21.622Z,5.80
2018-04-19T21:05:49.098Z,6.00
2018-04-19T21:08:16.593Z,6.00
2018-04-19T21:10:44.045Z,6.13
2018-04-19T21:13:11.538Z,5.90
2018-04-19T21:15:39.002Z,6.27
2018-04-19T21:18:06.479Z,5.77
2018-04-19T21:20:33.983Z,5.80
2018-04-19T21:23:01.451Z,5.43
2018-04-19T21:25:28.934Z,5.43
2018-04-19T21:27:56.393Z,5.73
2018-04-19T21:30:23.891Z,5.60
2018-04-19T21:32:51.677Z,5.70
2018-04-19T21:35:19.163Z,6.30
2018-04-19T21:37:46.641Z,6.07
2018-04-19T21:40:14.118Z,7.07
2018-04-19T21:42:41.608Z,6.90
2018-04-19T21:45:09.073Z,7.07
2018-04-19T21:47:36.536Z,6.87
2018-04-19T21:50:04.027Z,6.63
2018-04-19T21:52:31.481Z,6.23
2018-04-19T21:54:58.961Z,6.67
2018-04-19T21:57:26.429Z,6.60
2018-04-19T21:59:53.906Z,6.30
2018-04-19T22:02:21.370Z,6.00
2018-04-19T22:04:48.855Z,6.07
2018-04-19T22:07:16.326Z,6.83
2018-04-19T22:09:44.903Z,6.10
2018-04-19T22:12:12.389Z,6.43
2018-04-19T22:14:39.876Z,6.40
2018-04-19T22:17:07.342Z,6.43
2018-04-19T22:19:34.841Z,6.57
2018-04-19T22:22:02.302Z,6.63
2018-04-19T22:24:29.786Z,6.53
2018-04-19T22:26:57.259Z,6.20
2018-04-19T22:29:24.744Z,6.27
2018-04-19T22:31:52.209Z,6.57
2018-04-19T22:34:19.694Z,6.80
2018-04-19T22:36:47.158Z,6.50
2018-04-19T22:39:14.649Z,6.33
2018-04-19T22:41:42.109Z,6.60
2018-04-19T22:44:09.585Z,6.37
2018-04-19T22:46:37.061Z,6.27
2018-04-19T22:49:04.545Z,6.50
2018-04-19T22:51:32.019Z,6.17
2018-04-19T22:53:59.512Z,7.03
2018-04-19T22:56:26.982Z,6.87
2018-04-19T22:58:54.462Z,6.87
2018-04-19T23:01:21.925Z,6.93
2018-04-19T23:03:49.401Z,7.33
2018-04-19T23:06:16.868Z,6.83
2018-04-19T23:08:44.353Z,6.83
2018-04-19T23:11:11.819Z,7.50
2018-04-19T23:13:39.294Z,7.23
2018-04-19T23:16:06.791Z,7.00
2018-04-19T23:18:34.254Z,7.00
2018-04-19T23:21:01.743Z,7.33
2018-04-19T23:23:29.201Z,6.60
2018-04-19T23:25:56.682Z,6.57
2018-04-19T23:28:24.146Z,6.80
2018-04-19T23:30:51.649Z,6.87
2018-04-19T23:33:19.110Z,6.43
2018-04-19T23:35:46.595Z,6.70
2018-04-19T23:38:14.058Z,6.50
2018-04-19T23:40:41.541Z,6.57
2018-04-19T23:43:09.010Z,6.77
2018-04-19T23:45:36.512Z,6.10
2018-04-19T23:48:03.965Z,5.53
2018-04-19T23:50:31.451Z,5.90
2018-04-19T23:52:58.938Z,5.63
2018-04-19T23:55:26.879Z,6.60
2018-04-19T23:57:54.353Z,6.67
